M/V Crosby Hustler — WDA3941 — position and weather

sailwx.info

Track history (hours):
 
Tides and Currents Weather Stations Pressure Air Temp Water Temp Dewpoint Dewpoint Depression Visibility Wind Speed Wind Dir Waves Ship Positions

M/V Crosby Hustler

Owner: CROSBY INLAND MARINE LLC, GOLDEN MEADOW, LA. More information available from US FCC via Universal Licensing System and Coast Guard Vessel Documentation Center.

Last reported at 2015-Jan-28 21:31 UTC. Time now 2015-Jan-28 22:14 UTC.
Position N 29°44' W 095°12'.

Length 18 m; draft 9 m.

Type: Tug. MMSI: 366804030.

Date/timePositionNaut miles runAvg speedWind from/ knotsBaromVisibWave heightAir tempDewpointWater temp
2015-Jan-28 21:31N 29°44' W 095°12'0 0.0
2015-Jan-28 20:31N 29°44' W 095°12'0 0.0
2015-Jan-28 19:31N 29°44' W 095°12'0 0.0
2015-Jan-28 18:31N 29°44' W 095°12'0 0.0
2015-Jan-28 17:31N 29°44' W 095°12'0 0.0
2015-Jan-28 16:31N 29°44' W 095°12'0 0.0
2015-Jan-28 15:31N 29°44' W 095°12'0 0.0
2015-Jan-28 14:31N 29°44' W 095°12'0 0.0
2015-Jan-28 13:31N 29°44' W 095°12'0 0.0
2015-Jan-28 12:31N 29°44' W 095°12'0 0.0
2015-Jan-28 11:31N 29°44' W 095°12'0 0.0
2015-Jan-28 10:31N 29°44' W 095°12'0 0.0
2015-Jan-28 09:31N 29°44' W 095°12'0 0.0
2015-Jan-28 08:31N 29°44' W 095°12'0 0.0
2015-Jan-28 07:31N 29°44' W 095°12'0 0.0
2015-Jan-28 06:31N 29°44' W 095°12'0 0.0
2015-Jan-28 05:31N 29°44' W 095°12'0 0.0
2015-Jan-28 04:31N 29°44' W 095°12'0 0.0
2015-Jan-28 03:31N 29°44' W 095°12'0 0.0
2015-Jan-28 02:25N 29°44' W 095°12'0 0.0
2015-Jan-28 01:25N 29°44' W 095°12'0 0.0
2015-Jan-28 00:31N 29°44' W 095°12'0 0.0
2015-Jan-27 23:31N 29°44' W 095°12'0 0.0
2015-Jan-27 22:31N 29°44' W 095°12'0 0.0
2015-Jan-27 21:31N 29°44' W 095°12'0 0.0
2015-Jan-27 20:31N 29°44' W 095°12'3 2.7
2015-Jan-27 19:33N 29°44' W 095°09'5 4.2
2015-Jan-27 18:29N 29°46' W 095°05'1 1.4
2015-Jan-27 17:31N 29°45' W 095°06'0 0.0
2015-Jan-27 16:31N 29°45' W 095°06'0 0.0
2015-Jan-27 15:31N 29°45' W 095°06'0 0.3
2015-Jan-27 14:34N 29°45' W 095°06'1 0.6
2015-Jan-27 13:04N 29°46' W 095°06'1 1.8
2015-Jan-27 12:22N 29°46' W 095°05'0 0.0
2015-Jan-27 11:31N 29°46' W 095°05'1 1.0
2015-Jan-27 10:33N 29°45' W 095°04'4 3.8
2015-Jan-27 09:31N 29°42' W 095°01'4 4.0
2015-Jan-27 08:34N 29°39' W 094°58'5 5.0
2015-Jan-27 07:34N 29°35' W 094°56'5 5.1
2015-Jan-27 06:34N 29°31' W 094°53'5 5.1
2015-Jan-27 05:31N 29°26' W 094°50'9 4.3
2015-Jan-27 03:31N 29°18' W 094°53'4 3.9
2015-Jan-27 02:33N 29°17' W 094°57'4 4.1
2015-Jan-27 01:33N 29°14' W 095°01'4 4.2
2015-Jan-27 00:33N 29°12' W 095°04'20 0.6
2015-Jan-25 13:14N 28°57' W 095°20'0 0.0
2015-Jan-25 11:26N 28°57' W 095°20'40 1.1
2015-Jan-23 23:33N 29°28' W 094°51'6 6.2
2015-Jan-23 22:33N 29°34' W 094°55'6 6.2
2015-Jan-23 21:33N 29°39' W 094°58'2 2.5
2015-Jan-23 20:33N 29°40' W 094°56'1 0.5
2015-Jan-23 19:24N 29°41' W 094°55'0 0.0
2015-Jan-23 18:12N 29°41' W 094°55'0 0.0
2015-Jan-23 17:30N 29°41' W 094°56'0 0.1
2015-Jan-23 16:33N 29°41' W 094°56'0 0.0
2015-Jan-23 15:21N 29°41' W 094°56'0 0.3
2015-Jan-23 14:33N 29°41' W 094°55'2 1.4
2015-Jan-23 13:24N 29°43' W 094°56'1 0.1
2015-Jan-23 01:25N 29°43' W 094°57'2 2.6
2015-Jan-23 00:32N 29°41' W 094°55'5 4.9
2015-Jan-22 23:33N 29°42' W 095°01'6 6.0
2015-Jan-22 22:34N 29°46' W 095°06'1 0.8
2015-Jan-22 21:33N 29°47' W 095°06'0 0.0
2015-Jan-22 20:27N 29°47' W 095°06'0 0.0
2015-Jan-22 19:33N 29°47' W 095°06'0 0.0
2015-Jan-22 18:30N 29°47' W 095°06'0 0.0
2015-Jan-22 17:30N 29°47' W 095°06'0 0.0
2015-Jan-22 16:33N 29°47' W 095°06'0 0.0
2015-Jan-22 15:30N 29°47' W 095°06'0 0.0
2015-Jan-22 14:33N 29°47' W 095°06'0 0.0
2015-Jan-22 13:33N 29°47' W 095°06'0 0.0
2015-Jan-22 12:33N 29°47' W 095°06'0 0.0
2015-Jan-22 11:33N 29°47' W 095°06'0 0.0
2015-Jan-22 10:30N 29°47' W 095°06'0 0.0
2015-Jan-22 09:33N 29°47' W 095°06'0 0.0
2015-Jan-22 08:33N 29°47' W 095°06'0 0.0
2015-Jan-22 07:33N 29°47' W 095°06'0 0.0
2015-Jan-22 06:33N 29°47' W 095°06'0 0.0
2015-Jan-22 05:27N 29°47' W 095°06'0 0.0
2015-Jan-22 04:33N 29°47' W 095°06'0 0.0
2015-Jan-22 03:33N 29°47' W 095°06'0 0.0
2015-Jan-22 02:33N 29°47' W 095°06'0 0.0
2015-Jan-22 01:33N 29°47' W 095°06'0 0.0
2015-Jan-22 00:30N 29°47' W 095°06'0 0.0
2015-Jan-21 23:33N 29°47' W 095°06'0 0.0
2015-Jan-21 22:48N 29°47' W 095°06'0 0.1
2015-Jan-21 22:45N 29°47' W 095°06'0 0.0
2015-Jan-21 22:33N 29°47' W 095°06'0 0.0
2015-Jan-21 21:33N 29°47' W 095°06'0 0.0
2015-Jan-21 20:33N 29°47' W 095°06'0 0.0
2015-Jan-21 19:33N 29°47' W 095°06'0 0.0
2015-Jan-21 18:33N 29°47' W 095°06'0 0.1
2015-Jan-21 17:33N 29°47' W 095°06'0 0.5
2015-Jan-21 16:32N 29°46' W 095°06'0 0.0
2015-Jan-21 15:32N 29°46' W 095°06'1 0.6
2015-Jan-21 14:33N 29°47' W 095°06'0 0.0
2015-Jan-21 13:33N 29°47' W 095°06'0 0.0
2015-Jan-21 12:33N 29°47' W 095°06'0 0.0
2015-Jan-21 11:33N 29°47' W 095°06'0 0.0
2015-Jan-21 10:33N 29°47' W 095°06'0 0.0
2015-Jan-21 09:33N 29°47' W 095°06'0 0.0
2015-Jan-21 08:33N 29°47' W 095°06'0 0.0
2015-Jan-21 07:30N 29°47' W 095°06'0 0.0
2015-Jan-21 06:33N 29°47' W 095°06'0 0.0
2015-Jan-21 05:33N 29°47' W 095°06'0 0.0
2015-Jan-21 04:33N 29°47' W 095°06'0 0.0
2015-Jan-21 03:33N 29°47' W 095°06'0 0.0
2015-Jan-21 02:33N 29°47' W 095°06'0 0.0
2015-Jan-21 01:33N 29°47' W 095°06'0 0.0
2015-Jan-21 00:34N 29°47' W 095°06'5 5.1
2015-Jan-20 23:34N 29°44' W 095°01'6 5.8
2015-Jan-20 22:34N 29°40' W 094°56'3 3.0
2015-Jan-20 21:33N 29°43' W 094°57'1 0.0
2015-Jan-20 04:20N 29°43' W 094°56'1 1.5
2015-Jan-20 03:31N 29°42' W 094°56'1 1.1
2015-Jan-20 02:27N 29°41' W 094°56'2 2.7
2015-Jan-20 01:33N 29°41' W 094°58'4 4.0
2015-Jan-20 00:32N 29°44' W 095°02'4 3.9
2015-Jan-19 23:33N 29°47' W 095°04'1 0.5
2015-Jan-19 22:31N 29°48' W 095°04'0 0.0
2015-Jan-19 21:31N 29°48' W 095°04'0 0.0
2015-Jan-19 20:31N 29°48' W 095°04'0 0.0
2015-Jan-19 19:31N 29°48' W 095°04'0 0.0
2015-Jan-19 18:31N 29°48' W 095°04'0 0.0
2015-Jan-19 17:31N 29°48' W 095°04'0 0.0
2015-Jan-19 16:31N 29°48' W 095°04'0 0.0
2015-Jan-19 15:31N 29°48' W 095°04'0 0.0
2015-Jan-19 14:28N 29°48' W 095°04'0 0.0
2015-Jan-19 13:31N 29°48' W 095°04'0 0.0
2015-Jan-19 12:28N 29°48' W 095°04'0 0.0
2015-Jan-19 11:31N 29°48' W 095°04'0 0.1
2015-Jan-19 10:13N 29°47' W 095°04'0 0.1
2015-Jan-19 09:31N 29°48' W 095°04'0 0.0
2015-Jan-19 08:31N 29°48' W 095°04'0 0.0
2015-Jan-19 07:22N 29°48' W 095°04'0 0.1
2015-Jan-19 06:33N 29°47' W 095°04'4 4.4
2015-Jan-19 05:34N 29°44' W 095°07'5 5.1
2015-Jan-19 04:34N 29°43' W 095°13'1 1.3
2015-Jan-19 03:31N 29°43' W 095°14'0 0.0
2015-Jan-19 02:31N 29°43' W 095°14'0 0.0
2015-Jan-19 01:28N 29°43' W 095°14'0 0.0
2015-Jan-19 00:31N 29°43' W 095°14'0 0.0
2015-Jan-18 23:31N 29°43' W 095°14'0 0.0
2015-Jan-18 22:31N 29°43' W 095°14'  
Track history (hours):
 
Tides and Currents Weather Stations Pressure Air Temp Water Temp Dewpoint Dewpoint Depression Visibility Wind Speed Wind Dir Waves Ship Positions

M/V Crosby Hustler

Owner: CROSBY INLAND MARINE LLC, GOLDEN MEADOW, LA. More information available from US FCC via Universal Licensing System and Coast Guard Vessel Documentation Center.

Last reported at 2015-Jan-28 21:31 UTC. Time now 2015-Jan-28 22:14 UTC.
Position N 29°44' W 095°12'.

Length 18 m; draft 9 m.

Type: Tug. MMSI: 366804030.

Date/timePositionNaut miles runAvg speedWind from/ knotsBaromVisibWave heightAir tempDewpointWater temp
2015-Jan-28 21:31N 29°44' W 095°12'0 0.0
2015-Jan-28 20:31N 29°44' W 095°12'0 0.0
2015-Jan-28 19:31N 29°44' W 095°12'0 0.0
2015-Jan-28 18:31N 29°44' W 095°12'0 0.0
2015-Jan-28 17:31N 29°44' W 095°12'0 0.0
2015-Jan-28 16:31N 29°44' W 095°12'0 0.0
2015-Jan-28 15:31N 29°44' W 095°12'0 0.0
2015-Jan-28 14:31N 29°44' W 095°12'0 0.0
2015-Jan-28 13:31N 29°44' W 095°12'0 0.0
2015-Jan-28 12:31N 29°44' W 095°12'0 0.0
2015-Jan-28 11:31N 29°44' W 095°12'0 0.0
2015-Jan-28 10:31N 29°44' W 095°12'0 0.0
2015-Jan-28 09:31N 29°44' W 095°12'0 0.0
2015-Jan-28 08:31N 29°44' W 095°12'0 0.0
2015-Jan-28 07:31N 29°44' W 095°12'0 0.0
2015-Jan-28 06:31N 29°44' W 095°12'0 0.0
2015-Jan-28 05:31N 29°44' W 095°12'0 0.0
2015-Jan-28 04:31N 29°44' W 095°12'0 0.0
2015-Jan-28 03:31N 29°44' W 095°12'0 0.0
2015-Jan-28 02:25N 29°44' W 095°12'0 0.0
2015-Jan-28 01:25N 29°44' W 095°12'0 0.0
2015-Jan-28 00:31N 29°44' W 095°12'0 0.0
2015-Jan-27 23:31N 29°44' W 095°12'0 0.0
2015-Jan-27 22:31N 29°44' W 095°12'0 0.0
2015-Jan-27 21:31N 29°44' W 095°12'0 0.0
2015-Jan-27 20:31N 29°44' W 095°12'3 2.7
2015-Jan-27 19:33N 29°44' W 095°09'5 4.2
2015-Jan-27 18:29N 29°46' W 095°05'1 1.4
2015-Jan-27 17:31N 29°45' W 095°06'0 0.0
2015-Jan-27 16:31N 29°45' W 095°06'0 0.0
2015-Jan-27 15:31N 29°45' W 095°06'0 0.3
2015-Jan-27 14:34N 29°45' W 095°06'1 0.6
2015-Jan-27 13:04N 29°46' W 095°06'1 1.8
2015-Jan-27 12:22N 29°46' W 095°05'0 0.0
2015-Jan-27 11:31N 29°46' W 095°05'1 1.0
2015-Jan-27 10:33N 29°45' W 095°04'4 3.8
2015-Jan-27 09:31N 29°42' W 095°01'4 4.0
2015-Jan-27 08:34N 29°39' W 094°58'5 5.0
2015-Jan-27 07:34N 29°35' W 094°56'5 5.1
2015-Jan-27 06:34N 29°31' W 094°53'5 5.1
2015-Jan-27 05:31N 29°26' W 094°50'9 4.3
2015-Jan-27 03:31N 29°18' W 094°53'4 3.9
2015-Jan-27 02:33N 29°17' W 094°57'4 4.1
2015-Jan-27 01:33N 29°14' W 095°01'4 4.2
2015-Jan-27 00:33N 29°12' W 095°04'20 0.6
2015-Jan-25 13:14N 28°57' W 095°20'0 0.0
2015-Jan-25 11:26N 28°57' W 095°20'40 1.1
2015-Jan-23 23:33N 29°28' W 094°51'6 6.2
2015-Jan-23 22:33N 29°34' W 094°55'6 6.2
2015-Jan-23 21:33N 29°39' W 094°58'2 2.5
2015-Jan-23 20:33N 29°40' W 094°56'1 0.5
2015-Jan-23 19:24N 29°41' W 094°55'0 0.0
2015-Jan-23 18:12N 29°41' W 094°55'0 0.0
2015-Jan-23 17:30N 29°41' W 094°56'0 0.1
2015-Jan-23 16:33N 29°41' W 094°56'0 0.0
2015-Jan-23 15:21N 29°41' W 094°56'0 0.3
2015-Jan-23 14:33N 29°41' W 094°55'2 1.4
2015-Jan-23 13:24N 29°43' W 094°56'1 0.1
2015-Jan-23 01:25N 29°43' W 094°57'2 2.6
2015-Jan-23 00:32N 29°41' W 094°55'5 4.9
2015-Jan-22 23:33N 29°42' W 095°01'6 6.0
2015-Jan-22 22:34N 29°46' W 095°06'1 0.8
2015-Jan-22 21:33N 29°47' W 095°06'0 0.0
2015-Jan-22 20:27N 29°47' W 095°06'0 0.0
2015-Jan-22 19:33N 29°47' W 095°06'0 0.0
2015-Jan-22 18:30N 29°47' W 095°06'0 0.0
2015-Jan-22 17:30N 29°47' W 095°06'0 0.0
2015-Jan-22 16:33N 29°47' W 095°06'0 0.0
2015-Jan-22 15:30N 29°47' W 095°06'0 0.0
2015-Jan-22 14:33N 29°47' W 095°06'0 0.0
2015-Jan-22 13:33N 29°47' W 095°06'0 0.0
2015-Jan-22 12:33N 29°47' W 095°06'0 0.0
2015-Jan-22 11:33N 29°47' W 095°06'0 0.0
2015-Jan-22 10:30N 29°47' W 095°06'0 0.0
2015-Jan-22 09:33N 29°47' W 095°06'0 0.0
2015-Jan-22 08:33N 29°47' W 095°06'0 0.0
2015-Jan-22 07:33N 29°47' W 095°06'0 0.0
2015-Jan-22 06:33N 29°47' W 095°06'0 0.0
2015-Jan-22 05:27N 29°47' W 095°06'0 0.0
2015-Jan-22 04:33N 29°47' W 095°06'0 0.0
2015-Jan-22 03:33N 29°47' W 095°06'0 0.0
2015-Jan-22 02:33N 29°47' W 095°06'0 0.0
2015-Jan-22 01:33N 29°47' W 095°06'0 0.0
2015-Jan-22 00:30N 29°47' W 095°06'0 0.0
2015-Jan-21 23:33N 29°47' W 095°06'0 0.0
2015-Jan-21 22:48N 29°47' W 095°06'0 0.1
2015-Jan-21 22:45N 29°47' W 095°06'0 0.0
2015-Jan-21 22:33N 29°47' W 095°06'0 0.0
2015-Jan-21 21:33N 29°47' W 095°06'0 0.0
2015-Jan-21 20:33N 29°47' W 095°06'0 0.0
2015-Jan-21 19:33N 29°47' W 095°06'0 0.0
2015-Jan-21 18:33N 29°47' W 095°06'0 0.1
2015-Jan-21 17:33N 29°47' W 095°06'0 0.5
2015-Jan-21 16:32N 29°46' W 095°06'0 0.0
2015-Jan-21 15:32N 29°46' W 095°06'1 0.6
2015-Jan-21 14:33N 29°47' W 095°06'0 0.0
2015-Jan-21 13:33N 29°47' W 095°06'0 0.0
2015-Jan-21 12:33N 29°47' W 095°06'0 0.0
2015-Jan-21 11:33N 29°47' W 095°06'0 0.0
2015-Jan-21 10:33N 29°47' W 095°06'0 0.0
2015-Jan-21 09:33N 29°47' W 095°06'0 0.0
2015-Jan-21 08:33N 29°47' W 095°06'0 0.0
2015-Jan-21 07:30N 29°47' W 095°06'0 0.0
2015-Jan-21 06:33N 29°47' W 095°06'0 0.0
2015-Jan-21 05:33N 29°47' W 095°06'0 0.0
2015-Jan-21 04:33N 29°47' W 095°06'0 0.0
2015-Jan-21 03:33N 29°47' W 095°06'0 0.0
2015-Jan-21 02:33N 29°47' W 095°06'0 0.0
2015-Jan-21 01:33N 29°47' W 095°06'0 0.0
2015-Jan-21 00:34N 29°47' W 095°06'5 5.1
2015-Jan-20 23:34N 29°44' W 095°01'6 5.8
2015-Jan-20 22:34N 29°40' W 094°56'3 3.0
2015-Jan-20 21:33N 29°43' W 094°57'1 0.0
2015-Jan-20 04:20N 29°43' W 094°56'1 1.5
2015-Jan-20 03:31N 29°42' W 094°56'1 1.1
2015-Jan-20 02:27N 29°41' W 094°56'2 2.7
2015-Jan-20 01:33N 29°41' W 094°58'4 4.0
2015-Jan-20 00:32N 29°44' W 095°02'4 3.9
2015-Jan-19 23:33N 29°47' W 095°04'1 0.5
2015-Jan-19 22:31N 29°48' W 095°04'0 0.0
2015-Jan-19 21:31N 29°48' W 095°04'0 0.0
2015-Jan-19 20:31N 29°48' W 095°04'0 0.0
2015-Jan-19 19:31N 29°48' W 095°04'0 0.0
2015-Jan-19 18:31N 29°48' W 095°04'0 0.0
2015-Jan-19 17:31N 29°48' W 095°04'0 0.0
2015-Jan-19 16:31N 29°48' W 095°04'0 0.0
2015-Jan-19 15:31N 29°48' W 095°04'0 0.0
2015-Jan-19 14:28N 29°48' W 095°04'0 0.0
2015-Jan-19 13:31N 29°48' W 095°04'0 0.0
2015-Jan-19 12:28N 29°48' W 095°04'0 0.0
2015-Jan-19 11:31N 29°48' W 095°04'0 0.1
2015-Jan-19 10:13N 29°47' W 095°04'0 0.1
2015-Jan-19 09:31N 29°48' W 095°04'0 0.0
2015-Jan-19 08:31N 29°48' W 095°04'0 0.0
2015-Jan-19 07:22N 29°48' W 095°04'0 0.1
2015-Jan-19 06:33N 29°47' W 095°04'4 4.4
2015-Jan-19 05:34N 29°44' W 095°07'5 5.1
2015-Jan-19 04:34N 29°43' W 095°13'1 1.3
2015-Jan-19 03:31N 29°43' W 095°14'0 0.0
2015-Jan-19 02:31N 29°43' W 095°14'0 0.0
2015-Jan-19 01:28N 29°43' W 095°14'0 0.0
2015-Jan-19 00:31N 29°43' W 095°14'0 0.0
2015-Jan-18 23:31N 29°43' W 095°14'0 0.0
2015-Jan-18 22:31N 29°43' W 095°14'  

Dump ship's entire track history